Nieuwerkerken, Belgium
Current Conditions -  °F | °C
As of 9:25 AM on Monday 24 Nov 2014 (Local Time) from EBDT Reporting Station
Light Fog Light Fog  
Wind Chill: 42°   Ceiling: Unl
Heat Index: 45°   Visibility: 6mi
Dew Point: 43°   Wind: 5mph
Humidity: 93%   Direction: 280°W
Pressure: 30.27"   Gusts: NA
Location:  50.86°N, 5.19°E
Report Text: EBDT 240825Z 28004KT 9999 MIFG FEW050 07/06 Q1025 BLU BLU
Loading
Personal Weather Stations






























Interactive Weather Map New forecast layout! Learn more

10-Day Weather Forecast

Advertisements
Track Severe Weather on mobile